sensor_id;sensor_type;location;lat;lon;timestamp;temperature;humidity
18047;DHT22;9148;51.454;13.862;2022-09-01T00:01:34;15.80;99.90
18047;DHT22;9148;51.454;13.862;2022-09-01T00:04:05;15.80;99.90
18047;DHT22;9148;51.454;13.862;2022-09-01T00:06:33;15.80;99.90
18047;DHT22;9148;51.454;13.862;2022-09-01T00:09:02;15.70;99.90
18047;DHT22;9148;51.454;13.862;2022-09-01T00:11:30;15.70;99.90
18047;DHT22;9148;51.454;13.862;2022-09-01T00:13:57;15.70;99.90
18047;DHT22;9148;51.454;13.862;2022-09-01T00:16:26;15.70;99.90
18047;DHT22;9148;51.454;13.862;2022-09-01T00:18:53;15.70;99.90
18047;DHT22;9148;51.454;13.862;2022-09-01T00:21:34;15.70;99.90
18047;DHT22;9148;51.454;13.862;2022-09-01T00:24:04;15.70;99.90
18047;DHT22;9148;51.454;13.862;2022-09-01T00:26:30;15.70;99.90
18047;DHT22;9148;51.454;13.862;2022-09-01T00:28:56;15.70;99.90
18047;DHT22;9148;51.454;13.862;2022-09-01T00:31:22;15.60;99.90
18047;DHT22;9148;51.454;13.862;2022-09-01T00:33:48;15.60;99.90
18047;DHT22;9148;51.454;13.862;2022-09-01T00:36:15;15.60;99.90
18047;DHT22;9148;51.454;13.862;2022-09-01T00:38:41;15.60;99.90
18047;DHT22;9148;51.454;13.862;2022-09-01T00:41:07;15.60;99.90
18047;DHT22;9148;51.454;13.862;2022-09-01T00:43:54;15.60;99.90
18047;DHT22;9148;51.454;13.862;2022-09-01T00:46:29;15.60;99.90
18047;DHT22;9148;51.454;13.862;2022-09-01T00:49:10;15.60;99.90
18047;DHT22;9148;51.454;13.862;2022-09-01T00:51:40;15.60;99.90
18047;DHT22;9148;51.454;13.862;2022-09-01T00:54:12;15.60;99.90
18047;DHT22;9148;51.454;13.862;2022-09-01T00:56:42;15.50;99.90
18047;DHT22;9148;51.454;13.862;2022-09-01T00:59:09;15.50;99.90
18047;DHT22;9148;51.454;13.862;2022-09-01T01:01:36;15.50;99.90
18047;DHT22;9148;51.454;13.862;2022-09-01T01:04:07;15.50;99.90
18047;DHT22;9148;51.454;13.862;2022-09-01T01:06:42;15.50;99.90
18047;DHT22;9148;51.454;13.862;2022-09-01T01:09:18;15.40;99.90
18047;DHT22;9148;51.454;13.862;2022-09-01T01:11:45;15.40;99.90
18047;DHT22;9148;51.454;13.862;2022-09-01T01:14:12;15.40;99.90
18047;DHT22;9148;51.454;13.862;2022-09-01T01:16:44;15.40;99.90
18047;DHT22;9148;51.454;13.862;2022-09-01T01:19:21;15.30;99.90
18047;DHT22;9148;51.454;13.862;2022-09-01T01:22:40;15.30;99.90
18047;DHT22;9148;51.454;13.862;2022-09-01T01:25:41;15.20;99.90
18047;DHT22;9148;51.454;13.862;2022-09-01T01:28:33;15.20;99.90
18047;DHT22;9148;51.454;13.862;2022-09-01T01:31:08;15.20;99.90
18047;DHT22;9148;51.454;13.862;2022-09-01T01:33:57;15.10;99.90
18047;DHT22;9148;51.454;13.862;2022-09-01T01:36:29;15.10;99.90
18047;DHT22;9148;51.454;13.862;2022-09-01T01:38:59;15.10;99.90
18047;DHT22;9148;51.454;13.862;2022-09-01T01:41:30;15.00;99.90
18047;DHT22;9148;51.454;13.862;2022-09-01T01:43:59;15.00;99.90
18047;DHT22;9148;51.454;13.862;2022-09-01T01:46:29;15.00;99.90
18047;DHT22;9148;51.454;13.862;2022-09-01T01:48:56;15.00;99.90
18047;DHT22;9148;51.454;13.862;2022-09-01T01:51:22;15.00;99.90
18047;DHT22;9148;51.454;13.862;2022-09-01T01:53:56;15.00;99.90
18047;DHT22;9148;51.454;13.862;2022-09-01T01:56:26;15.00;99.90
18047;DHT22;9148;51.454;13.862;2022-09-01T01:58:53;15.00;99.90
18047;DHT22;9148;51.454;13.862;2022-09-01T02:01:25;15.00;99.90
18047;DHT22;9148;51.454;13.862;2022-09-01T02:03:54;15.00;99.90
18047;DHT22;9148;51.454;13.862;2022-09-01T02:06:22;15.00;99.90
18047;DHT22;9148;51.454;13.862;2022-09-01T02:08:50;15.00;99.90
18047;DHT22;9148;51.454;13.862;2022-09-01T02:11:18;15.00;99.90
18047;DHT22;9148;51.454;13.862;2022-09-01T02:13:44;14.90;99.90
18047;DHT22;9148;51.454;13.862;2022-09-01T02:16:11;14.90;99.90
18047;DHT22;9148;51.454;13.862;2022-09-01T02:18:41;14.90;99.90
18047;DHT22;9148;51.454;13.862;2022-09-01T02:21:13;14.90;99.90
18047;DHT22;9148;51.454;13.862;2022-09-01T02:23:45;14.90;99.90
18047;DHT22;9148;51.454;13.862;2022-09-01T02:26:13;14.90;99.90
18047;DHT22;9148;51.454;13.862;2022-09-01T02:28:41;14.80;99.90
18047;DHT22;9148;51.454;13.862;2022-09-01T02:31:10;14.90;99.90
18047;DHT22;9148;51.454;13.862;2022-09-01T02:33:37;14.90;99.90
18047;DHT22;9148;51.454;13.862;2022-09-01T02:36:07;14.90;99.90
18047;DHT22;9148;51.454;13.862;2022-09-01T02:38:39;14.90;99.90
18047;DHT22;9148;51.454;13.862;2022-09-01T02:41:09;14.80;99.90
18047;DHT22;9148;51.454;13.862;2022-09-01T02:43:36;14.80;99.90
18047;DHT22;9148;51.454;13.862;2022-09-01T02:46:04;14.80;99.90
18047;DHT22;9148;51.454;13.862;2022-09-01T02:48:36;14.80;99.90
18047;DHT22;9148;51.454;13.862;2022-09-01T02:51:09;14.80;99.90
18047;DHT22;9148;51.454;13.862;2022-09-01T02:53:36;14.80;99.90
18047;DHT22;9148;51.454;13.862;2022-09-01T02:56:05;14.80;99.90
18047;DHT22;9148;51.454;13.862;2022-09-01T02:58:36;14.80;99.90
18047;DHT22;9148;51.454;13.862;2022-09-01T03:03:48;14.80;99.90
18047;DHT22;9148;51.454;13.862;2022-09-01T03:06:15;14.80;99.90
18047;DHT22;9148;51.454;13.862;2022-09-01T03:08:43;14.80;99.90
18047;DHT22;9148;51.454;13.862;2022-09-01T03:11:09;14.80;99.90
18047;DHT22;9148;51.454;13.862;2022-09-01T03:13:37;14.80;99.90
18047;DHT22;9148;51.454;13.862;2022-09-01T03:16:05;14.80;99.90
18047;DHT22;9148;51.454;13.862;2022-09-01T03:18:32;14.70;99.90
18047;DHT22;9148;51.454;13.862;2022-09-01T03:20:58;14.80;99.90
18047;DHT22;9148;51.454;13.862;2022-09-01T03:23:24;14.80;99.90
18047;DHT22;9148;51.454;13.862;2022-09-01T03:25:51;14.70;99.90
18047;DHT22;9148;51.454;13.862;2022-09-01T03:28:17;15.00;99.90
18047;DHT22;9148;51.454;13.862;2022-09-01T03:30:46;14.80;99.90
18047;DHT22;9148;51.454;13.862;2022-09-01T03:33:14;14.70;99.90
18047;DHT22;9148;51.454;13.862;2022-09-01T03:35:42;14.80;99.90
18047;DHT22;9148;51.454;13.862;2022-09-01T03:38:09;14.70;99.90
18047;DHT22;9148;51.454;13.862;2022-09-01T03:40:37;14.80;99.90
18047;DHT22;9148;51.454;13.862;2022-09-01T03:43:07;14.80;99.90
18047;DHT22;9148;51.454;13.862;2022-09-01T03:45:36;14.80;99.90
18047;DHT22;9148;51.454;13.862;2022-09-01T03:48:03;14.70;99.90
18047;DHT22;9148;51.454;13.862;2022-09-01T03:50:35;14.70;99.90
18047;DHT22;9148;51.454;13.862;2022-09-01T03:53:12;14.70;99.90
18047;DHT22;9148;51.454;13.862;2022-09-01T03:55:39;14.70;99.90
18047;DHT22;9148;51.454;13.862;2022-09-01T03:58:08;14.70;99.90
18047;DHT22;9148;51.454;13.862;2022-09-01T04:00:42;14.70;99.90
18047;DHT22;9148;51.454;13.862;2022-09-01T04:03:10;14.60;99.90
18047;DHT22;9148;51.454;13.862;2022-09-01T04:05:38;14.60;99.90
18047;DHT22;9148;51.454;13.862;2022-09-01T04:08:08;14.60;99.90
18047;DHT22;9148;51.454;13.862;2022-09-01T04:10:51;14.60;99.90
18047;DHT22;9148;51.454;13.862;2022-09-01T04:13:19;14.60;99.90
18047;DHT22;9148;51.454;13.862;2022-09-01T04:15:47;14.60;99.90
18047;DHT22;9148;51.454;13.862;2022-09-01T04:18:14;14.60;99.90
18047;DHT22;9148;51.454;13.862;2022-09-01T04:20:49;14.60;99.90
18047;DHT22;9148;51.454;13.862;2022-09-01T04:23:29;14.60;99.90
18047;DHT22;9148;51.454;13.862;2022-09-01T04:26:00;14.60;99.90
18047;DHT22;9148;51.454;13.862;2022-09-01T04:28:35;14.60;99.90
18047;DHT22;9148;51.454;13.862;2022-09-01T04:31:05;14.60;99.90
18047;DHT22;9148;51.454;13.862;2022-09-01T04:33:34;14.60;99.90
18047;DHT22;9148;51.454;13.862;2022-09-01T04:36:20;14.60;99.90
18047;DHT22;9148;51.454;13.862;2022-09-01T04:38:53;14.60;99.90
18047;DHT22;9148;51.454;13.862;2022-09-01T04:41:21;14.60;99.90
18047;DHT22;9148;51.454;13.862;2022-09-01T04:43:52;14.60;99.90
18047;DHT22;9148;51.454;13.862;2022-09-01T04:46:23;14.60;99.90
18047;DHT22;9148;51.454;13.862;2022-09-01T04:48:53;14.60;99.90
18047;DHT22;9148;51.454;13.862;2022-09-01T04:51:19;14.60;99.90
18047;DHT22;9148;51.454;13.862;2022-09-01T04:53:46;14.60;99.90
18047;DHT22;9148;51.454;13.862;2022-09-01T04:56:17;14.50;99.90
18047;DHT22;9148;51.454;13.862;2022-09-01T04:58:46;14.60;99.90
18047;DHT22;9148;51.454;13.862;2022-09-01T05:01:17;14.60;99.90
18047;DHT22;9148;51.454;13.862;2022-09-01T05:03:45;14.60;99.90
18047;DHT22;9148;51.454;13.862;2022-09-01T05:06:17;14.60;99.90
18047;DHT22;9148;51.454;13.862;2022-09-01T05:08:43;14.70;99.90
18047;DHT22;9148;51.454;13.862;2022-09-01T05:11:13;14.70;99.90
18047;DHT22;9148;51.454;13.862;2022-09-01T05:13:47;14.70;99.90
18047;DHT22;9148;51.454;13.862;2022-09-01T05:16:17;14.80;99.90
18047;DHT22;9148;51.454;13.862;2022-09-01T05:18:47;14.70;99.90
18047;DHT22;9148;51.454;13.862;2022-09-01T05:21:16;14.80;99.90
18047;DHT22;9148;51.454;13.862;2022-09-01T05:23:45;14.80;99.90
18047;DHT22;9148;51.454;13.862;2022-09-01T05:26:16;14.80;99.90
18047;DHT22;9148;51.454;13.862;2022-09-01T05:28:45;14.90;99.90
18047;DHT22;9148;51.454;13.862;2022-09-01T05:31:11;14.90;99.90
18047;DHT22;9148;51.454;13.862;2022-09-01T05:33:38;14.90;99.90
18047;DHT22;9148;51.454;13.862;2022-09-01T05:36:11;15.00;99.90
18047;DHT22;9148;51.454;13.862;2022-09-01T05:38:39;15.00;99.90
18047;DHT22;9148;51.454;13.862;2022-09-01T05:41:09;15.00;99.90
18047;DHT22;9148;51.454;13.862;2022-09-01T05:43:43;15.10;99.90
18047;DHT22;9148;51.454;13.862;2022-09-01T05:46:18;15.10;99.90
18047;DHT22;9148;51.454;13.862;2022-09-01T05:48:49;15.10;99.90
18047;DHT22;9148;51.454;13.862;2022-09-01T05:51:19;15.20;99.90
18047;DHT22;9148;51.454;13.862;2022-09-01T05:53:52;15.20;99.90
18047;DHT22;9148;51.454;13.862;2022-09-01T05:56:23;15.20;99.90
18047;DHT22;9148;51.454;13.862;2022-09-01T05:58:53;15.30;99.90
18047;DHT22;9148;51.454;13.862;2022-09-01T06:01:22;15.30;99.90
18047;DHT22;9148;51.454;13.862;2022-09-01T06:03:51;15.30;99.90
18047;DHT22;9148;51.454;13.862;2022-09-01T06:06:20;15.30;99.90
18047;DHT22;9148;51.454;13.862;2022-09-01T06:08:48;15.40;99.90
18047;DHT22;9148;51.454;13.862;2022-09-01T06:11:15;15.40;99.90
18047;DHT22;9148;51.454;13.862;2022-09-01T06:13:43;15.50;99.90
18047;DHT22;9148;51.454;13.862;2022-09-01T06:16:15;15.50;99.90
18047;DHT22;9148;51.454;13.862;2022-09-01T06:18:42;15.60;99.90
18047;DHT22;9148;51.454;13.862;2022-09-01T06:21:10;15.60;99.90
18047;DHT22;9148;51.454;13.862;2022-09-01T06:23:40;15.70;99.90
18047;DHT22;9148;51.454;13.862;2022-09-01T06:26:14;15.70;99.90
18047;DHT22;9148;51.454;13.862;2022-09-01T06:28:44;15.70;99.90
18047;DHT22;9148;51.454;13.862;2022-09-01T06:31:10;15.80;99.90
18047;DHT22;9148;51.454;13.862;2022-09-01T06:33:37;15.80;99.90
18047;DHT22;9148;51.454;13.862;2022-09-01T06:36:04;15.90;99.90
18047;DHT22;9148;51.454;13.862;2022-09-01T06:38:30;15.90;99.90
18047;DHT22;9148;51.454;13.862;2022-09-01T06:41:03;15.90;99.90
18047;DHT22;9148;51.454;13.862;2022-09-01T06:43:34;16.00;99.90
18047;DHT22;9148;51.454;13.862;2022-09-01T06:46:01;16.10;99.90
18047;DHT22;9148;51.454;13.862;2022-09-01T06:48:28;16.10;99.90
18047;DHT22;9148;51.454;13.862;2022-09-01T06:50:58;16.20;99.90
18047;DHT22;9148;51.454;13.862;2022-09-01T06:53:28;16.20;99.90
18047;DHT22;9148;51.454;13.862;2022-09-01T06:55:56;16.40;99.90
18047;DHT22;9148;51.454;13.862;2022-09-01T06:58:23;16.40;99.90
18047;DHT22;9148;51.454;13.862;2022-09-01T07:00:50;16.50;99.90
18047;DHT22;9148;51.454;13.862;2022-09-01T07:03:16;16.60;99.90
18047;DHT22;9148;51.454;13.862;2022-09-01T07:05:46;16.60;99.90
18047;DHT22;9148;51.454;13.862;2022-09-01T07:08:15;16.70;99.90
18047;DHT22;9148;51.454;13.862;2022-09-01T07:10:48;16.80;99.90
18047;DHT22;9148;51.454;13.862;2022-09-01T07:13:18;16.80;99.90
18047;DHT22;9148;51.454;13.862;2022-09-01T07:15:50;16.90;99.90
18047;DHT22;9148;51.454;13.862;2022-09-01T07:18:22;16.90;99.90
18047;DHT22;9148;51.454;13.862;2022-09-01T07:20:53;16.90;99.90
18047;DHT22;9148;51.454;13.862;2022-09-01T07:23:19;17.00;99.90
18047;DHT22;9148;51.454;13.862;2022-09-01T07:25:49;17.00;99.90
18047;DHT22;9148;51.454;13.862;2022-09-01T07:28:21;17.10;99.90
18047;DHT22;9148;51.454;13.862;2022-09-01T07:30:53;17.10;99.90
18047;DHT22;9148;51.454;13.862;2022-09-01T07:33:20;17.20;99.90
18047;DHT22;9148;51.454;13.862;2022-09-01T07:35:49;17.30;99.90
18047;DHT22;9148;51.454;13.862;2022-09-01T07:38:20;17.40;99.90
18047;DHT22;9148;51.454;13.862;2022-09-01T07:40:47;17.50;99.90
18047;DHT22;9148;51.454;13.862;2022-09-01T07:43:16;17.50;99.90
18047;DHT22;9148;51.454;13.862;2022-09-01T07:45:51;17.60;99.90
18047;DHT22;9148;51.454;13.862;2022-09-01T07:48:21;17.70;99.90
18047;DHT22;9148;51.454;13.862;2022-09-01T07:50:53;17.70;99.90
18047;DHT22;9148;51.454;13.862;2022-09-01T07:53:26;17.70;99.60
18047;DHT22;9148;51.454;13.862;2022-09-01T07:55:54;17.70;99.20
18047;DHT22;9148;51.454;13.862;2022-09-01T07:58:23;17.60;99.10
18047;DHT22;9148;51.454;13.862;2022-09-01T08:00:51;17.60;99.30
18047;DHT22;9148;51.454;13.862;2022-09-01T08:03:20;17.70;99.10
18047;DHT22;9148;51.454;13.862;2022-09-01T08:05:47;17.70;99.10
18047;DHT22;9148;51.454;13.862;2022-09-01T08:08:18;17.70;99.20
18047;DHT22;9148;51.454;13.862;2022-09-01T08:10:45;17.70;99.30
18047;DHT22;9148;51.454;13.862;2022-09-01T08:13:11;17.80;99.20
18047;DHT22;9148;51.454;13.862;2022-09-01T08:15:40;17.90;99.00
18047;DHT22;9148;51.454;13.862;2022-09-01T08:18:06;17.90;98.90
18047;DHT22;9148;51.454;13.862;2022-09-01T08:20:33;17.90;98.60
18047;DHT22;9148;51.454;13.862;2022-09-01T08:23:02;17.90;98.50
18047;DHT22;9148;51.454;13.862;2022-09-01T08:25:29;17.90;98.60
18047;DHT22;9148;51.454;13.862;2022-09-01T08:27:56;17.90;98.60
18047;DHT22;9148;51.454;13.862;2022-09-01T08:30:22;18.00;98.60
18047;DHT22;9148;51.454;13.862;2022-09-01T08:32:48;18.10;98.70
18047;DHT22;9148;51.454;13.862;2022-09-01T08:35:13;18.20;98.60
18047;DHT22;9148;51.454;13.862;2022-09-01T08:37:41;18.40;98.20
18047;DHT22;9148;51.454;13.862;2022-09-01T08:40:12;18.60;98.30
18047;DHT22;9148;51.454;13.862;2022-09-01T08:43:05;18.80;97.70
18047;DHT22;9148;51.454;13.862;2022-09-01T08:45:54;19.10;97.60
18047;DHT22;9148;51.454;13.862;2022-09-01T08:48:36;19.30;96.60
18047;DHT22;9148;51.454;13.862;2022-09-01T08:56:43;20.00;95.60
18047;DHT22;9148;51.454;13.862;2022-09-01T08:59:10;20.20;95.40
18047;DHT22;9148;51.454;13.862;2022-09-01T09:01:45;20.40;95.20
18047;DHT22;9148;51.454;13.862;2022-09-01T09:04:39;20.80;95.00
18047;DHT22;9148;51.454;13.862;2022-09-01T09:07:26;21.30;93.90
18047;DHT22;9148;51.454;13.862;2022-09-01T09:10:07;21.80;92.90
18047;DHT22;9148;51.454;13.862;2022-09-01T09:15:53;22.80;90.40
18047;DHT22;9148;51.454;13.862;2022-09-01T09:18:48;23.20;86.40
18047;DHT22;9148;51.454;13.862;2022-09-01T09:21:18;23.40;84.30
18047;DHT22;9148;51.454;13.862;2022-09-01T09:23:53;23.40;81.10
18047;DHT22;9148;51.454;13.862;2022-09-01T09:26:24;23.40;82.10
18047;DHT22;9148;51.454;13.862;2022-09-01T09:28:49;23.50;80.20
18047;DHT22;9148;51.454;13.862;2022-09-01T09:31:34;23.60;75.40
18047;DHT22;9148;51.454;13.862;2022-09-01T09:34:30;23.70;77.50
18047;DHT22;9148;51.454;13.862;2022-09-01T09:37:16;23.90;75.10
18047;DHT22;9148;51.454;13.862;2022-09-01T09:42:43;24.30;73.50
18047;DHT22;9148;51.454;13.862;2022-09-01T09:45:33;24.40;66.70
18047;DHT22;9148;51.454;13.862;2022-09-01T09:48:29;24.30;68.10
18047;DHT22;9148;51.454;13.862;2022-09-01T09:51:19;24.40;69.40
18047;DHT22;9148;51.454;13.862;2022-09-01T09:53:47;24.60;66.30
18047;DHT22;9148;51.454;13.862;2022-09-01T09:56:17;24.70;66.90
18047;DHT22;9148;51.454;13.862;2022-09-01T09:58:46;24.80;64.90
18047;DHT22;9148;51.454;13.862;2022-09-01T10:03:54;25.10;61.40
18047;DHT22;9148;51.454;13.862;2022-09-01T10:06:42;25.30;61.80
18047;DHT22;9148;51.454;13.862;2022-09-01T10:09:33;25.50;59.70
18047;DHT22;9148;51.454;13.862;2022-09-01T10:12:02;25.80;60.60
18047;DHT22;9148;51.454;13.862;2022-09-01T10:14:41;26.10;58.00
18047;DHT22;9148;51.454;13.862;2022-09-01T10:17:14;26.30;57.50
18047;DHT22;9148;51.454;13.862;2022-09-01T10:20:03;26.50;56.20
18047;DHT22;9148;51.454;13.862;2022-09-01T10:22:34;26.60;54.60
18047;DHT22;9148;51.454;13.862;2022-09-01T10:25:03;26.60;54.20
18047;DHT22;9148;51.454;13.862;2022-09-01T10:27:37;26.70;53.80
18047;DHT22;9148;51.454;13.862;2022-09-01T10:30:11;26.80;53.90
18047;DHT22;9148;51.454;13.862;2022-09-01T10:32:48;27.20;53.60
18047;DHT22;9148;51.454;13.862;2022-09-01T10:35:22;27.60;53.10
18047;DHT22;9148;51.454;13.862;2022-09-01T10:37:51;28.10;51.40
18047;DHT22;9148;51.454;13.862;2022-09-01T10:43:44;28.80;49.80
18047;DHT22;9148;51.454;13.862;2022-09-01T10:45:53;29.10;49.10
18047;DHT22;9148;51.454;13.862;2022-09-01T10:50:46;29.80;45.80
18047;DHT22;9148;51.454;13.862;2022-09-01T11:04:21;29.00;46.50
18047;DHT22;9148;51.454;13.862;2022-09-01T11:09:44;28.80;47.60
18047;DHT22;9148;51.454;13.862;2022-09-01T11:15:33;28.40;47.40
18047;DHT22;9148;51.454;13.862;2022-09-01T11:18:06;28.10;47.50
18047;DHT22;9148;51.454;13.862;2022-09-01T11:20:39;28.00;47.30
18047;DHT22;9148;51.454;13.862;2022-09-01T11:25:53;28.30;47.00
18047;DHT22;9148;51.454;13.862;2022-09-01T11:30:58;28.80;45.90
18047;DHT22;9148;51.454;13.862;2022-09-01T11:39:21;27.90;45.10
18047;DHT22;9148;51.454;13.862;2022-09-01T11:42:15;27.60;45.40
18047;DHT22;9148;51.454;13.862;2022-09-01T11:45:22;27.20;46.10
18047;DHT22;9148;51.454;13.862;2022-09-01T11:48:01;27.00;45.80
18047;DHT22;9148;51.454;13.862;2022-09-01T11:50:39;26.60;45.60
18047;DHT22;9148;51.454;13.862;2022-09-01T11:53:07;26.10;46.10
18047;DHT22;9148;51.454;13.862;2022-09-01T11:55:47;25.70;47.20
18047;DHT22;9148;51.454;13.862;2022-09-01T12:00:52;25.00;48.30
18047;DHT22;9148;51.454;13.862;2022-09-01T12:03:23;24.80;49.00
18047;DHT22;9148;51.454;13.862;2022-09-01T12:06:04;24.50;49.60
18047;DHT22;9148;51.454;13.862;2022-09-01T12:08:35;24.40;50.40
18047;DHT22;9148;51.454;13.862;2022-09-01T12:11:11;24.20;51.00
18047;DHT22;9148;51.454;13.862;2022-09-01T12:14:00;24.10;51.50
18047;DHT22;9148;51.454;13.862;2022-09-01T12:16:29;24.00;51.70
18047;DHT22;9148;51.454;13.862;2022-09-01T12:18:59;23.90;52.00
18047;DHT22;9148;51.454;13.862;2022-09-01T12:21:30;23.70;52.30
18047;DHT22;9148;51.454;13.862;2022-09-01T12:24:16;23.50;52.70
18047;DHT22;9148;51.454;13.862;2022-09-01T12:26:46;23.30;53.30
18047;DHT22;9148;51.454;13.862;2022-09-01T12:29:13;23.10;53.60
18047;DHT22;9148;51.454;13.862;2022-09-01T12:31:41;23.10;54.20
18047;DHT22;9148;51.454;13.862;2022-09-01T12:34:35;23.10;54.30
18047;DHT22;9148;51.454;13.862;2022-09-01T12:37:06;23.20;54.60
18047;DHT22;9148;51.454;13.862;2022-09-01T12:39:46;23.10;54.80
18047;DHT22;9148;51.454;13.862;2022-09-01T12:44:50;23.00;55.30
18047;DHT22;9148;51.454;13.862;2022-09-01T12:50:00;22.90;56.00
18047;DHT22;9148;51.454;13.862;2022-09-01T12:52:28;22.90;56.30
18047;DHT22;9148;51.454;13.862;2022-09-01T12:57:25;22.90;57.00
18047;DHT22;9148;51.454;13.862;2022-09-01T13:02:42;22.80;57.00
18047;DHT22;9148;51.454;13.862;2022-09-01T13:05:27;22.70;57.00
18047;DHT22;9148;51.454;13.862;2022-09-01T13:07:59;22.70;57.40
18047;DHT22;9148;51.454;13.862;2022-09-01T13:10:31;22.60;57.10
18047;DHT22;9148;51.454;13.862;2022-09-01T13:12:58;22.60;56.80
18047;DHT22;9148;51.454;13.862;2022-09-01T13:15:25;22.60;56.40
18047;DHT22;9148;51.454;13.862;2022-09-01T13:17:52;22.60;56.60
18047;DHT22;9148;51.454;13.862;2022-09-01T13:20:18;22.60;56.80
18047;DHT22;9148;51.454;13.862;2022-09-01T13:22:44;22.60;57.00
18047;DHT22;9148;51.454;13.862;2022-09-01T13:25:12;22.60;57.20
18047;DHT22;9148;51.454;13.862;2022-09-01T13:27:39;22.70;57.40
18047;DHT22;9148;51.454;13.862;2022-09-01T13:30:09;22.70;57.20
18047;DHT22;9148;51.454;13.862;2022-09-01T13:32:36;22.70;57.20
18047;DHT22;9148;51.454;13.862;2022-09-01T13:35:03;22.70;56.80
18047;DHT22;9148;51.454;13.862;2022-09-01T13:37:29;22.70;56.70
18047;DHT22;9148;51.454;13.862;2022-09-01T13:39:54;22.70;56.70
18047;DHT22;9148;51.454;13.862;2022-09-01T13:42:20;22.70;56.50
18047;DHT22;9148;51.454;13.862;2022-09-01T13:44:46;22.70;56.50
18047;DHT22;9148;51.454;13.862;2022-09-01T13:47:12;22.60;56.20
18047;DHT22;9148;51.454;13.862;2022-09-01T13:49:38;22.50;56.10
18047;DHT22;9148;51.454;13.862;2022-09-01T13:52:03;22.40;56.40
18047;DHT22;9148;51.454;13.862;2022-09-01T13:54:29;22.40;56.60
18047;DHT22;9148;51.454;13.862;2022-09-01T13:56:55;22.40;56.80
18047;DHT22;9148;51.454;13.862;2022-09-01T13:59:20;22.40;57.10
18047;DHT22;9148;51.454;13.862;2022-09-01T14:01:46;22.40;57.10
18047;DHT22;9148;51.454;13.862;2022-09-01T14:04:12;22.40;57.20
18047;DHT22;9148;51.454;13.862;2022-09-01T14:06:42;22.50;57.20
18047;DHT22;9148;51.454;13.862;2022-09-01T14:09:09;22.50;57.10
18047;DHT22;9148;51.454;13.862;2022-09-01T14:11:36;22.50;57.30
18047;DHT22;9148;51.454;13.862;2022-09-01T14:14:02;22.60;57.30
18047;DHT22;9148;51.454;13.862;2022-09-01T14:16:28;22.50;57.40
18047;DHT22;9148;51.454;13.862;2022-09-01T14:18:53;22.50;57.70
18047;DHT22;9148;51.454;13.862;2022-09-01T14:21:19;22.50;57.80
18047;DHT22;9148;51.454;13.862;2022-09-01T14:23:45;22.50;57.90
18047;DHT22;9148;51.454;13.862;2022-09-01T14:26:13;22.50;58.00
18047;DHT22;9148;51.454;13.862;2022-09-01T14:28:41;22.50;58.30
18047;DHT22;9148;51.454;13.862;2022-09-01T14:31:11;22.50;58.50
18047;DHT22;9148;51.454;13.862;2022-09-01T14:33:39;22.50;58.70
18047;DHT22;9148;51.454;13.862;2022-09-01T14:36:06;22.50;58.90
18047;DHT22;9148;51.454;13.862;2022-09-01T14:38:33;22.40;58.90
18047;DHT22;9148;51.454;13.862;2022-09-01T14:41:00;22.40;58.90
18047;DHT22;9148;51.454;13.862;2022-09-01T14:43:26;22.40;58.90
18047;DHT22;9148;51.454;13.862;2022-09-01T14:46:12;22.30;58.70
18047;DHT22;9148;51.454;13.862;2022-09-01T14:48:38;22.30;58.70
18047;DHT22;9148;51.454;13.862;2022-09-01T14:51:05;22.30;58.80
18047;DHT22;9148;51.454;13.862;2022-09-01T14:53:33;22.30;58.70
18047;DHT22;9148;51.454;13.862;2022-09-01T14:55:59;22.30;58.50
18047;DHT22;9148;51.454;13.862;2022-09-01T14:58:27;22.30;58.20
18047;DHT22;9148;51.454;13.862;2022-09-01T15:00:54;22.30;58.30
18047;DHT22;9148;51.454;13.862;2022-09-01T15:03:24;22.30;58.50
18047;DHT22;9148;51.454;13.862;2022-09-01T15:05:53;22.40;58.60
18047;DHT22;9148;51.454;13.862;2022-09-01T15:08:20;22.40;58.70
18047;DHT22;9148;51.454;13.862;2022-09-01T15:10:45;22.50;58.90
18047;DHT22;9148;51.454;13.862;2022-09-01T15:13:11;22.50;58.40
18047;DHT22;9148;51.454;13.862;2022-09-01T15:15:38;22.40;58.60
18047;DHT22;9148;51.454;13.862;2022-09-01T15:18:04;22.40;57.80
18047;DHT22;9148;51.454;13.862;2022-09-01T15:20:30;22.30;57.90
18047;DHT22;9148;51.454;13.862;2022-09-01T15:23:22;22.30;58.30
18047;DHT22;9148;51.454;13.862;2022-09-01T15:25:51;22.30;58.30
18047;DHT22;9148;51.454;13.862;2022-09-01T15:28:19;22.30;58.20
18047;DHT22;9148;51.454;13.862;2022-09-01T15:30:45;22.20;58.30
18047;DHT22;9148;51.454;13.862;2022-09-01T15:33:12;22.20;58.50
18047;DHT22;9148;51.454;13.862;2022-09-01T15:35:39;22.10;58.40
18047;DHT22;9148;51.454;13.862;2022-09-01T15:38:05;21.90;58.60
18047;DHT22;9148;51.454;13.862;2022-09-01T15:40:32;21.80;58.90
18047;DHT22;9148;51.454;13.862;2022-09-01T15:42:58;21.80;59.30
18047;DHT22;9148;51.454;13.862;2022-09-01T15:45:26;21.80;59.30
18047;DHT22;9148;51.454;13.862;2022-09-01T15:47:53;21.80;59.10
18047;DHT22;9148;51.454;13.862;2022-09-01T15:50:21;21.70;59.10
18047;DHT22;9148;51.454;13.862;2022-09-01T15:52:50;21.70;59.10
18047;DHT22;9148;51.454;13.862;2022-09-01T15:55:19;21.60;59.20
18047;DHT22;9148;51.454;13.862;2022-09-01T15:57:47;21.60;59.30
18047;DHT22;9148;51.454;13.862;2022-09-01T16:00:14;21.60;59.40
18047;DHT22;9148;51.454;13.862;2022-09-01T16:02:41;21.60;59.50
18047;DHT22;9148;51.454;13.862;2022-09-01T16:05:07;21.50;59.30
18047;DHT22;9148;51.454;13.862;2022-09-01T16:07:34;21.50;59.40
18047;DHT22;9148;51.454;13.862;2022-09-01T16:09:59;21.50;59.20
18047;DHT22;9148;51.454;13.862;2022-09-01T16:12:26;21.40;59.20
18047;DHT22;9148;51.454;13.862;2022-09-01T16:14:52;21.30;59.20
18047;DHT22;9148;51.454;13.862;2022-09-01T16:17:35;21.30;59.30
18047;DHT22;9148;51.454;13.862;2022-09-01T16:20:33;21.30;59.50
18047;DHT22;9148;51.454;13.862;2022-09-01T16:23:14;21.30;59.70
18047;DHT22;9148;51.454;13.862;2022-09-01T16:25:42;21.30;59.30
18047;DHT22;9148;51.454;13.862;2022-09-01T16:28:28;21.20;59.10
18047;DHT22;9148;51.454;13.862;2022-09-01T16:31:04;21.20;59.10
18047;DHT22;9148;51.454;13.862;2022-09-01T16:33:46;21.10;59.30
18047;DHT22;9148;51.454;13.862;2022-09-01T16:36:48;21.10;59.50
18047;DHT22;9148;51.454;13.862;2022-09-01T16:39:31;21.10;59.40
18047;DHT22;9148;51.454;13.862;2022-09-01T16:42:39;21.00;59.40
18047;DHT22;9148;51.454;13.862;2022-09-01T16:48:24;20.90;59.60
18047;DHT22;9148;51.454;13.862;2022-09-01T16:51:35;20.90;59.80
18047;DHT22;9148;51.454;13.862;2022-09-01T16:54:41;20.80;60.00
18047;DHT22;9148;51.454;13.862;2022-09-01T16:57:55;20.70;59.90
18047;DHT22;9148;51.454;13.862;2022-09-01T17:01:00;20.70;60.20
18047;DHT22;9148;51.454;13.862;2022-09-01T17:03:35;20.60;60.30
18047;DHT22;9148;51.454;13.862;2022-09-01T17:06:30;20.50;60.70